Estació municipal de St. Hilari Sacalm (La Selva, Guilleries)

Consulta les dades en temps real de l'estació municipal de St. Hilari Sacalm





Hora UTC 08:00
Temperatura 13.4 ºC
Humitat 82.5 %
Pressió 1014.2 hPa
Pluja 0.0 mm
Velocitat vent 2.9 km/h
Direcció vent NE
Radiació solar 390.4 W/m²

Webcam

Dades diàries 2026-05-09



Hora UTC (hivern +1h; estiu +2h)
Temperatura (ºC) Humitat (%) Pressió (hPa) Velocitat vent (km/h) Precipitació (mm) Radiació solar (W/m²)
Hora UTC Aire Humitat Pressió Vel. Dir. Vel. Max Dir. Intent. màx 5 min. Rad. Sol.
00:05 7.5 95.5 1015.4 0.0 NNE 0.0 W 0.0 0.1
00:10 7.5 95.5 1015.4 0.0 NNE 0.0 SSW 0.0 0.1
00:15 7.3 95.4 1015.4 0.0 NNE 0.0 W 0.0 0.1
00:20 7.4 95.9 1015.4 0.3 WNW 8.8 NW 0.0 0.1
00:25 7.6 96.2 1015.4 0.1 NNW 6.1 N 0.0 0.1
00:30 7.8 96.1 1015.5 0.4 SW 8.8 SW 0.0 0.1
00:35 7.8 96.0 1015.4 0.0 NNE 0.0 W 0.0 0.1
00:40 7.9 96.1 1015.4 0.0 NNE 0.0 WNW 0.0 0.1
00:45 8.0 96.1 1015.3 1.4 SSW 11.5 SSW 0.0 0.1
00:50 8.0 96.0 1015.3 3.2 WNW 11.5 NW 0.0 0.1
00:55 8.2 96.2 1015.4 0.5 NW 8.8 WNW 0.0 0.1
01:00 8.4 96.2 1015.4 0.0 NNE 0.0 WNW 0.0 0.1
01:05 8.3 95.7 1015.3 0.0 NNE 0.0 WNW 0.0 0.1
01:10 8.2 95.6 1015.3 0.0 NNE 0.0 WSW 0.0 0.1
01:15 8.2 95.6 1015.3 0.0 WSW 3.4 WSW 0.0 0.1
01:20 8.5 96.2 1015.3 0.3 WNW 6.1 NW 0.0 0.1
01:25 8.7 96.1 1015.3 0.1 WNW 3.4 WNW 0.0 0.1
01:30 8.9 95.9 1015.2 0.1 WNW 3.4 WNW 0.0 0.1
01:35 8.8 95.4 1015.2 0.3 NW 6.1 WNW 0.0 0.1
01:40 8.7 95.4 1015.1 0.0 NNE 0.0 W 0.0 0.1
01:45 8.7 95.5 1015.1 0.0 NNE 0.0 W 0.0 0.1
01:50 8.7 95.6 1015.1 0.3 WNW 6.1 WNW 0.0 0.1
01:55 8.7 95.5 1015.0 0.0 NNE 0.0 NNW 0.0 0.1
02:00 8.7 95.7 1015.0 0.3 WNW 8.8 W 0.0 0.1
02:05 8.8 95.8 1014.9 0.3 WNW 11.5 NW 0.0 0.1
02:10 9.1 96.2 1014.9 0.8 WNW 8.8 W 0.0 0.1
02:15 9.2 96.1 1014.8 1.5 NW 11.5 NW 0.0 0.1
02:20 9.2 95.8 1014.7 3.8 NNW 14.2 NW 0.0 0.1
02:25 9.4 95.8 1014.7 0.5 NNW 8.8 WNW 0.0 0.1
02:30 9.3 95.5 1014.6 0.7 NNW 11.5 NW 0.0 0.1
02:35 9.3 95.5 1014.5 2.5 NW 14.2 NW 0.0 0.1
02:40 9.4 95.3 1014.5 2.3 NW 11.5 WNW 0.0 0.1
02:45 9.3 95.1 1014.4 0.0 WNW 3.4 WNW 0.0 0.1
02:50 9.3 94.9 1014.4 0.0 NNE 0.0 WNW 0.0 0.1
02:55 9.2 95.0 1014.5 0.3 WSW 6.1 SW 0.0 0.1
03:00 9.1 95.2 1014.5 0.0 NNE 0.0 W 0.0 0.1
03:05 9.1 94.9 1014.4 0.0 NNE 0.0 SW 0.0 0.1
03:10 8.9 94.8 1014.4 0.0 W 3.4 W 0.0 0.1
03:15 8.9 94.9 1014.3 0.0 NNE 0.0 W 0.0 0.1
03:20 8.8 94.9 1014.3 0.0 NNE 0.0 WSW 0.0 0.1
03:25 8.7 94.9 1014.4 0.0 NNE 0.0 SSW 0.0 0.1
03:30 8.5 94.7 1014.3 0.0 WSW 3.4 WSW 0.0 0.1
03:35 8.4 94.9 1014.3 0.0 NNE 0.0 SSW 0.0 0.1
03:40 8.4 95.0 1014.3 0.1 WSW 6.1 WSW 0.0 0.1
03:45 8.5 95.3 1014.5 0.0 NNE 0.0 SW 0.0 0.1
03:50 8.5 95.3 1014.4 0.0 NNE 0.0 SW 0.0 0.1
03:55 8.4 95.3 1014.4 0.0 NNE 0.0 SW 0.0 0.1
04:00 8.4 95.3 1014.4 0.0 SW 3.4 SW 0.0 0.1
04:05 8.3 95.2 1014.4 0.0 NNE 0.0 WSW 0.0 0.1
04:10 8.3 95.3 1014.3 0.0 NNE 0.0 WSW 0.0 0.1
04:15 8.3 95.5 1014.3 0.0 NNE 0.0 WSW 0.0 0.1
04:20 8.4 95.7 1014.3 0.0 NNE 0.0 WSW 0.0 0.2
04:25 8.5 95.6 1014.4 0.0 NNE 0.0 SW 0.0 0.5
04:30 8.6 95.5 1014.3 0.0 NNE 0.0 SSW 0.0 1.7
04:35 8.5 95.3 1014.4 0.0 NNE 0.0 SSW 0.0 1.6
04:40 8.5 95.2 1014.4 0.0 NNE 0.0 SSW 0.0 1.5
04:45 8.6 95.3 1014.5 0.0 NNE 0.0 SSW 0.0 2.3
04:50 8.7 95.4 1014.5 0.0 NNE 0.0 SSW 0.0 3.9
04:55 8.8 95.3 1014.5 0.0 NNE 0.0 S 0.0 4.9
05:00 8.8 95.2 1014.5 0.0 NNE 0.0 S 0.0 5.9
05:05 8.9 95.2 1014.5 0.0 NNE 0.0 WSW 0.0 7.6
05:10 9.0 95.1 1014.5 0.0 NNE 0.0 WSW 0.0 11.0
05:15 9.1 95.1 1014.5 0.0 NNE 0.0 SW 0.0 14.2
05:20 9.2 95.1 1014.5 0.0 NNE 0.0 SW 0.0 16.0
05:25 9.3 95.1 1014.6 0.0 NNE 0.0 SW 0.0 15.8
05:30 9.5 95.0 1014.6 0.0 NNE 0.0 SSW 0.0 13.3
05:35 9.5 94.8 1014.6 0.0 NNE 0.0 SSW 0.0 11.7
05:40 9.6 94.8 1014.7 0.0 NNE 0.0 SSW 0.0 9.1
05:45 9.7 94.8 1014.7 0.0 NNE 0.0 SSW 0.0 12.4
05:50 9.8 94.7 1014.6 0.0 NNE 0.0 WSW 0.0 20.8
05:55 9.9 94.9 1014.6 0.0 NNE 0.0 W 0.0 24.2
06:00 10.0 95.0 1014.6 0.0 NNE 0.0 W 0.0 21.3
06:05 10.1 95.0 1014.6 0.0 NNE 0.0 W 0.0 25.5
06:10 10.2 94.9 1014.6 0.0 NNE 0.0 W 0.0 30.4
06:15 10.3 94.9 1014.5 0.0 NNE 0.0 W 0.0 37.1
06:20 10.4 95.0 1014.5 0.0 NNE 0.0 W 0.0 46.4
06:25 10.5 95.0 1014.6 0.0 NNE 0.0 W 0.0 54.6
06:30 10.7 94.9 1014.6 0.0 NNE 0.0 W 0.0 59.5
06:35 10.8 94.8 1014.7 0.0 NNE 0.0 W 0.0 69.9
06:40 11.0 94.7 1014.6 0.0 NNE 0.0 W 0.0 109.6
06:45 11.3 94.8 1014.5 0.0 NNE 0.0 W 0.0 164.7
06:50 11.6 94.7 1014.5 0.0 NNE 0.0 NNW 0.0 243.1
06:55 12.1 94.3 1014.4 0.0 NNE 0.0 N 0.0 250.6
07:00 12.4 93.5 1014.4 0.0 NNE 0.0 WNW 0.0 243.9
07:05 12.4 92.6 1014.4 0.1 NW 3.4 NW 0.0 261.1
07:10 12.6 92.0 1014.4 0.3 NW 6.1 NW 0.0 276.6
07:15 12.8 91.5 1014.4 0.0 NNE 0.0 NW 0.0 289.5
07:20 13.2 90.5 1014.3 0.0 NNE 0.0 NNE 0.0 283.1
07:25 13.5 88.9 1014.3 0.0 NNE 0.0 NE 0.0 324.0
07:30 13.7 85.8 1014.4 1.0 ENE 8.8 E 0.0 309.8
07:35 13.6 83.4 1014.4 4.3 ENE 14.2 ENE 0.0 340.8
07:40 13.3 80.5 1014.5 6.7 ENE 14.2 NNE 0.0 258.7
07:45 13.2 79.7 1014.5 5.6 ENE 16.9 ENE 0.0 277.3
07:50 13.2 79.6 1014.5 6.4 ENE 14.2 ENE 0.0 331.8
07:55 13.3 81.5 1014.3 5.2 NE 14.2 ENE 0.0 360.0
08:00 13.4 82.5 1014.2 2.9 NE 11.5 NNE 0.0 390.4
Màxima 13.7 96.2 1015.5 6.7 ENE 16.9 ENE 0.0 390.4
Mínima 7.3 79.6 1014.2
Total 0.0